Latest Weather Observations for Clermont Airport

IDQ60801

Issued at 4:35 pm EST Tuesday 29 July 2014 (issued every 30 minutes, with the page automatically refreshed every 10 minutes)

About weather observations | Map of weather stations | Latest weather observations for QLD | Other Formats
Station Details ID: 035124 Name: CLERMONT AIRPORT Lat: -22.78 Lon: 147.62 Height: 270.27 m
Data from the previous 72 hours. | See also: Recent months at Clermont Airport
Date/Time
EST
Temp
°C
App
Temp
°C
Dew
Point
Rel
Hum
%
Delta-T
°C
Wind Press
QNH
hPa
Press
MSL
hPa
Rain
since 9 am
mm
Dir
 
Spd
km/h
Gust
km/h
Spd
kts
Gust
kts
29/04:30pm 25.6 23.3 4.7 26 10.6 E 6 15 3 8 1019.1 - 0.0
29/04:00pm 25.8 22.6 4.9 26 10.7 SE 11 19 6 10 1019.0 1018.7 0.0
29/03:30pm 26.4 23.7 5.4 26 10.9 SSE 9 19 5 10 1018.9 - 0.0
29/03:00pm 26.1 23.3 5.1 26 10.8 SE 9 24 5 13 1019.0 1018.7 0.0
29/02:30pm 25.4 23.0 5.1 27 10.4 SSE 7 17 4 9 1019.2 - 0.0
29/02:00pm 25.5 22.8 5.7 28 10.3 SSE 9 19 5 10 1019.6 1019.3 0.0
29/01:30pm 25.3 23.4 5.0 27 10.4 SE 4 7 2 4 1020.1 - 0.0
29/01:00pm 24.8 22.4 5.1 28 10.0 SSE 7 13 4 7 1020.7 1020.4 0.0
29/12:30pm 24.7 22.2 5.0 28 10.0 E 7 17 4 9 1021.1 - 0.0
29/12:00pm 23.9 22.1 5.3 30 9.5 ESE 4 11 2 6 1021.7 1021.5 0.0
29/11:30am 23.8 21.5 7.4 35 8.7 NNE 9 19 5 10 1022.2 - 0.0
29/11:00am 22.7 20.7 7.3 37 8.1 NNE 7 15 4 8 1022.8 1022.5 0.0
29/10:30am 21.8 19.8 7.2 39 7.6 NNE 7 17 4 9 1023.1 - 0.0
29/10:00am 20.9 19.3 7.9 43 6.8 NE 6 9 3 5 1023.4 1023.1 0.0
29/09:30am 19.7 18.1 8.1 47 6.1 N 6 13 3 7 1023.6 - 0.0
29/09:00am 17.4 16.1 7.7 53 4.9 N 4 7 2 4 1023.8 1023.5 0.0
29/08:30am 14.5 13.4 6.8 60 3.8 W 2 4 1 2 1023.9 - 0.0
29/08:00am 11.8 11.0 6.3 69 2.6 CALM 0 0 0 0 1023.8 1023.5 0.0
29/07:30am 7.8 6.2 4.6 80 1.4 NNW 2 4 1 2 1023.6 - 0.0
29/07:00am 5.0 3.3 1.8 80 1.3 CALM 0 0 0 0 1023.3 1023.0 0.0
29/06:30am 5.0 3.4 2.4 83 1.1 CALM 0 0 0 0 1023.0 - 0.0
29/06:00am 5.4 3.7 2.1 79 1.3 CALM 0 0 0 0 1022.8 1022.5 0.0
29/05:30am 6.1 3.7 2.2 76 1.6 NW 4 6 2 3 1022.4 - 0.0
29/05:00am 6.9 4.8 3.7 80 1.4 N 4 6 2 3 1022.0 1021.7 0.0
29/04:30am 5.8 3.8 2.3 78 1.4 WNW 2 7 1 4 1021.6 - 0.0
29/04:00am 5.4 3.6 1.5 76 1.6 CALM 0 4 0 2 1021.5 1021.2 0.0
29/03:30am 5.4 2.5 1.3 75 1.6 W 6 9 3 5 1021.4 - 0.0
29/03:00am 5.7 3.1 1.2 73 1.8 W 4 6 2 3 1021.3 1021.0 0.0
29/02:30am 7.0 5.0 2.1 71 2.0 W 2 4 1 2 1021.2 - 0.0
29/02:00am 7.4 4.4 2.1 69 2.2 W 7 13 4 7 1021.1 1020.8 0.0
29/01:30am 6.5 3.5 1.0 68 2.2 SW 6 7 3 4 1021.1 - 0.0
29/01:00am 6.5 4.3 1.2 69 2.1 WNW 2 4 1 2 1021.2 1020.9 0.0
29/12:30am 7.2 5.4 1.5 67 2.3 CALM 0 0 0 0 1021.5 - 0.0
29/12:00am 9.0 6.4 1.2 58 3.2 NNE 4 6 2 3 1021.6 1021.4 0.0
 
Date/Time
EST
Temp
°C
App
Temp
°C
Dew
Point
Rel
Hum
%
Delta-T
°C
Wind Press
QNH
hPa
Press
MSL
hPa
Rain
since 9 am
mm
Dir
 
Spd
km/h
Gust
km/h
Spd
kts
Gust
kts
28/11:30pm 10.0 7.3 2.4 59 3.3 NNE 6 9 3 5 1021.6 - 0.0
28/11:00pm 8.8 6.4 1.9 62 2.9 N 4 20 2 11 1021.8 1021.6 0.0
28/10:30pm 9.8 8.1 1.9 58 3.4 CALM 0 0 0 0 1021.7 - 0.0
28/10:00pm 9.4 7.8 2.5 62 3.0 CALM 0 0 0 0 1021.6 1021.4 0.0
28/09:30pm 10.0 7.7 2.6 60 3.2 WSW 4 6 2 3 1021.5 - 0.0
28/09:00pm 11.1 9.5 2.4 55 3.8 CALM 0 0 0 0 1021.5 1021.2 0.0
28/08:30pm 11.3 8.8 1.5 51 4.2 NNW 4 13 2 7 1021.4 - 0.0
28/08:00pm 13.7 12.2 3.2 49 4.8 CALM 0 0 0 0 1021.0 1020.7 0.0
28/07:30pm 13.8 12.1 1.8 44 5.3 CALM 0 0 0 0 1020.9 - 0.0
28/07:00pm 17.0 14.6 2.2 37 6.7 S 4 6 2 3 1020.5 1020.2 0.0
28/06:30pm 19.4 16.6 1.9 31 8.1 SSE 6 6 3 3 1020.2 - 0.0
28/06:00pm 21.9 19.5 2.1 27 9.4 S 4 6 2 3 1019.9 1019.6 0.0
28/05:30pm 23.8 21.0 2.0 24 10.5 SSE 6 9 3 5 1019.7 - 0.0
28/05:00pm 24.8 21.9 1.7 22 11.1 SSE 6 9 3 5 1019.6 1019.3 0.0
28/04:30pm 25.1 21.7 1.9 22 11.2 SSE 9 13 5 7 1019.4 - 0.0
28/04:00pm 25.5 22.7 2.2 22 11.3 E 6 11 3 6 1019.3 1019.0 0.0
28/03:30pm 26.1 22.8 2.7 22 11.6 S 9 17 5 9 1019.3 - 0.0
28/03:00pm 25.8 23.6 3.1 23 11.2 W 4 11 2 6 1019.6 1019.3 0.0
28/02:30pm 24.9 21.3 3.0 24 10.8 S 11 17 6 9 1019.8 - 0.0
28/02:00pm 25.4 22.9 4.0 25 10.7 W 6 13 3 7 1020.2 1019.9 0.0
28/01:30pm 24.9 22.5 4.1 26 10.5 ESE 6 15 3 8 1020.8 - 0.0
28/01:00pm 24.9 22.6 4.6 27 10.3 WSW 6 15 3 8 1021.5 1021.2 0.0
28/12:30pm 24.3 22.0 4.6 28 10.0 SSW 6 11 3 6 1022.2 - 0.0
28/12:00pm 23.3 20.5 5.2 31 9.1 SSE 9 15 5 8 1022.9 1022.6 0.0
28/11:30am 22.6 20.0 6.0 34 8.5 E 9 17 5 9 1023.5 - 0.0
28/11:00am 21.9 19.9 7.0 38 7.7 ESE 7 15 4 8 1024.0 1023.7 0.0
28/10:30am 20.9 18.9 7.2 41 7.1 SE 7 13 4 7 1024.5 - 0.0
28/10:00am 19.7 17.2 5.0 38 7.2 ESE 7 13 4 7 1024.7 1024.4 0.0
28/09:30am 18.1 15.6 5.0 42 6.4 SE 7 13 4 7 1024.8 - 0.0
28/09:00am 16.6 13.6 4.3 44 5.8 SSE 9 13 5 7 1024.7 1024.4 0.0
28/08:30am 14.8 12.3 4.5 50 4.9 SSE 7 11 4 6 1024.4 - 0.0
28/08:00am 12.9 10.9 4.6 57 3.8 S 4 6 2 3 1024.1 1023.8 0.0
28/07:30am 9.9 8.8 5.3 73 2.1 CALM 0 0 0 0 1023.9 - 0.0
28/07:00am 8.2 6.5 3.9 74 1.9 SSW 2 4 1 2 1023.5 1023.2 0.0
28/06:30am 7.9 5.5 4.5 79 1.5 SSW 6 9 3 5 1023.2 - 0.0
28/06:00am 8.8 6.3 4.6 75 1.9 SSW 7 9 4 5 1022.9 1022.6 0.0
28/05:30am 6.9 4.3 4.2 83 1.2 SW 7 9 4 5 1022.6 - 0.0
28/05:00am 7.2 4.6 4.0 80 1.4 SW 7 7 4 4 1022.5 1022.2 0.0
28/04:30am 8.0 5.5 4.0 76 1.8 SSW 6 9 3 5 1022.4 - 0.0
28/04:00am 7.4 4.8 4.4 81 1.3 SW 7 9 4 5 1022.4 1022.1 0.0
28/03:30am 7.6 5.1 4.6 81 1.3 SW 7 9 4 5 1022.3 - 0.0
28/03:00am 7.2 4.5 3.8 79 1.5 SW 7 9 4 5 1022.3 1022.0 0.0
28/02:30am 9.3 6.9 5.3 76 1.8 SSW 7 9 4 5 1022.4 - 0.0
28/02:00am 8.5 6.0 4.9 78 1.6 SSW 7 9 4 5 1022.5 1022.2 0.0
28/01:30am 7.7 5.2 4.7 81 1.3 S 7 9 4 5 1022.6 - 0.0
28/01:00am 8.7 6.4 4.9 77 1.7 SSW 6 7 3 4 1022.8 1022.5 0.0
28/12:30am 8.6 6.2 5.2 79 1.5 S 7 9 4 5 1022.9 - 0.0
28/12:00am 9.5 8.4 5.3 75 1.9 CALM 0 0 0 0 1023.1 1022.8 0.0
 
Date/Time
EST
Temp
°C
App
Temp
°C
Dew
Point
Rel
Hum
%
Delta-T
°C
Wind Press
QNH
hPa
Press
MSL
hPa
Rain
since 9 am
mm
Dir
 
Spd
km/h
Gust
km/h
Spd
kts
Gust
kts
27/11:30pm 10.6 9.3 5.8 72 2.3 SSW 2 4 1 2 1023.1 - 0.0
27/11:00pm 10.4 9.4 5.6 72 2.2 CALM 0 0 0 0 1022.9 1022.6 0.0
27/10:30pm 10.6 9.6 5.6 71 2.3 CALM 0 0 0 0 1023.0 - 0.0
27/10:00pm 11.4 10.1 5.9 69 2.6 SW 2 4 1 2 1023.1 1022.8 0.0
27/09:30pm 11.7 10.9 6.4 70 2.5 CALM 0 0 0 0 1023.1 - 0.0
27/09:00pm 12.7 11.8 6.1 64 3.2 CALM 0 4 0 2 1022.9 1022.6 0.0
27/08:30pm 14.2 13.5 6.8 61 3.6 CALM 0 2 0 1 1022.7 - 0.0
27/08:00pm 14.3 13.5 6.4 59 3.8 CALM 0 0 0 0 1022.3 1022.0 0.0
27/07:30pm 15.9 15.0 6.1 52 4.8 CALM 0 0 0 0 1022.1 - 0.0
27/07:00pm 17.3 16.4 5.9 47 5.6 CALM 0 0 0 0 1021.7 1021.5 0.0
27/06:30pm 19.0 17.7 6.2 43 6.4 ESE 2 4 1 2 1021.4 - 0.0
27/06:00pm 22.1 20.5 6.3 36 8.1 SSE 4 6 2 3 1021.2 1020.9 0.0
27/05:30pm 23.6 21.9 6.0 32 9.1 SSE 4 9 2 5 1021.1 - 0.0
27/05:00pm 24.8 22.0 7.0 32 9.4 SSE 11 20 6 11 1021.0 1020.7 0.0
27/04:30pm 24.4 22.5 7.5 34 9.0 S 7 9 4 5 1020.9 - 0.0
27/04:00pm 25.5 22.0 7.1 31 9.8 S 15 26 8 14 1020.8 1020.5 0.0
27/03:30pm 25.6 22.1 7.2 31 9.8 SE 15 22 8 12 1020.9 - 0.0
27/03:00pm 26.0 23.5 8.0 32 9.7 SSE 11 20 6 11 1021.0 1020.7 0.0
27/02:30pm 25.6 23.3 9.0 35 9.1 S 11 19 6 10 1021.2 - 0.0
27/02:00pm 24.9 22.7 9.2 37 8.6 SE 11 19 6 10 1021.7 1021.5 0.0
27/01:30pm 24.6 22.2 10.1 40 8.1 SE 13 20 7 11 1022.3 - 0.0
27/01:00pm 23.9 21.3 10.6 43 7.4 ESE 15 24 8 13 1022.8 1022.5 0.0
27/12:30pm 24.2 22.2 11.5 45 7.2 ESE 13 28 7 15 1023.4 - 0.0
27/12:00pm 22.9 20.6 11.9 50 6.3 ESE 15 22 8 12 1024.0 1023.7 0.0
27/11:30am 21.6 20.2 12.2 55 5.4 SE 11 19 6 10 1024.6 - 0.0
27/11:00am 21.0 19.8 12.9 60 4.6 SSE 11 19 6 10 1025.2 1025.0 0.0
27/10:30am 19.5 18.7 13.0 66 3.7 ESE 9 13 5 7 1025.7 - 0.0
27/10:00am 18.4 18.1 13.3 72 2.9 SSE 7 11 4 6 1026.0 1025.7 0.0
27/09:30am 17.0 17.0 13.5 80 2.0 SE 6 9 3 5 1025.7 - 0.0
27/09:00am 14.0 14.4 12.4 90 0.9 SSE 2 6 1 3 1025.6 1025.4 0.2
27/08:30am 11.5 11.8 11.0 97 0.3 CALM 0 0 0 0 1025.3 - 0.2
27/08:00am 10.3 10.3 9.8 97 0.3 CALM 0 0 0 0 1025.0 1024.8 0.2
27/07:30am 9.3 9.0 8.8 97 0.2 CALM 0 0 0 0 1024.7 - 0.2
27/07:00am 8.6 8.2 8.2 97 0.2 CALM 0 0 0 0 1024.4 1024.1 0.2
27/06:30am 8.1 7.6 7.7 97 0.2 CALM 0 0 0 0 1024.3 - 0.2
27/06:00am 7.2 6.4 6.6 96 0.3 CALM 0 0 0 0 1023.9 1023.6 0.0
27/05:30am 7.5 6.7 6.6 94 0.4 CALM 0 0 0 0 1023.6 - 0.0
27/05:00am 8.0 7.4 7.4 96 0.3 CALM 0 0 0 0 1023.4 1023.1 0.0
27/04:30am 8.4 7.9 7.8 96 0.3 CALM 0 0 0 0 1023.4 - 0.0
27/04:00am 8.3 7.8 7.7 96 0.3 CALM 0 0 0 0 1023.4 1023.1 0.0
27/03:30am 8.7 8.2 7.9 95 0.4 CALM 0 0 0 0 1023.4 - 0.0
27/03:00am 9.4 9.1 8.6 95 0.4 CALM 0 0 0 0 1023.7 1023.4 0.0
27/02:30am 9.4 9.0 8.3 93 0.5 CALM 0 0 0 0 1023.7 - 0.0
27/02:00am 10.0 9.8 8.9 93 0.5 CALM 0 0 0 0 1024.1 1023.8 0.0
27/01:30am 10.4 10.3 9.3 93 0.6 CALM 0 0 0 0 1024.3 - 0.0
27/01:00am 10.5 10.3 9.1 91 0.7 CALM 0 0 0 0 1025.0 1024.8 0.0
27/12:30am 12.0 12.4 11.2 95 0.4 CALM 0 0 0 0 1025.1 - 0.0
27/12:00am 12.0 11.5 10.9 93 0.6 SSW 4 6 2 3 1025.4 1025.2 0.0
 
Date/Time
EST
Temp
°C
App
Temp
°C
Dew
Point
Rel
Hum
%
Delta-T
°C
Wind Press
QNH
hPa
Press
MSL
hPa
Rain
since 9 am
mm
Dir
 
Spd
km/h
Gust
km/h
Spd
kts
Gust
kts
26/11:30pm 12.3 12.3 11.2 93 0.6 SW 2 4 1 2 1025.6 - 0.0
26/11:00pm 12.6 12.0 11.7 94 0.5 SSW 6 7 3 4 1025.5 1025.3 0.0
26/10:30pm 13.1 12.5 12.2 94 0.5 SW 7 9 4 5 1025.6 - 0.0
26/10:00pm 13.8 14.4 12.0 89 1.0 CALM 0 0 0 0 1025.5 1025.3 0.0
26/09:30pm 14.6 15.4 12.6 88 1.1 CALM 0 0 0 0 1025.3 - 0.0
26/09:00pm 15.6 16.7 13.4 87 1.2 CALM 0 0 0 0 1025.4 1025.2 0.0
26/08:30pm 16.1 16.5 13.6 85 1.4 S 4 6 2 3 1025.4 - 0.0
26/08:00pm 17.0 18.2 13.7 81 1.9 CALM 0 0 0 0 1025.2 1025.0 0.0
26/07:30pm 17.6 18.1 14.1 80 2.0 SSE 4 4 2 2 1025.1 - 0.0
26/07:00pm 17.7 18.6 14.0 79 2.1 S 2 4 1 2 1024.8 1024.6 0.0
26/06:30pm 18.2 18.8 14.3 78 2.3 SSE 4 6 2 3 1024.5 - 0.0
26/06:00pm 18.5 18.5 14.2 76 2.5 S 7 9 4 5 1024.4 1024.1 0.0
26/05:30pm 19.0 19.0 14.3 74 2.7 S 7 11 4 6 1024.2 - 0.0
26/05:00pm 19.3 19.0 14.3 73 2.9 S 9 13 5 7 1024.2 1023.9 0.0

Other Formats:

Comma delimited format used in spreadsheet applications
http://www.bom.gov.au/fwo/IDQ60801/IDQ60801.94395.axf

JavaScript Object Notation format (JSON) in row-major order
http://www.bom.gov.au/fwo/IDQ60801/IDQ60801.94395.json